This is the latest recevied weather packets stored in our database for station/object SQ9PDE-13. If no packets are shown the sender has not sent any weather packets the latest 10 day(s).
| Time | Temp. | Humidity | Pressure | Rain* | Wind** | Luminosity | Snow |
|---|---|---|---|---|---|---|---|
| 1787472120 | 22.78° C | 46% | 1022.1 hPa | - | - | - | - |
| 1787471819 | 25° C | 43% | 1021.8 hPa | - | - | - | - |
| 1787471519 | 23.89° C | 45% | 1022 hPa | - | - | - | - |
| 1787471218 | 22.78° C | 48% | 1022.2 hPa | - | - | - | - |
| 1787470918 | 23.33° C | 47% | 1022.1 hPa | - | - | - | - |
| 1787470617 | 21.67° C | 50% | 1022.4 hPa | - | - | - | - |
| 1787470316 | 23.33° C | 48% | 1022.1 hPa | - | - | - | - |
| 1787470016 | 22.78° C | 48% | 1022.3 hPa | - | - | - | - |
| 1787469715 | 21.67° C | 50% | 1022.4 hPa | - | - | - | - |
| 1787469415 | 21.11° C | 51% | 1022.5 hPa | - | - | - | - |
| 1787469114 | 20.56° C | 52% | 1022.6 hPa | - | - | - | - |
| 1787468814 | 20.56° C | 52% | 1022.6 hPa | - | - | - | - |
| 1787468513 | 20.56° C | 52% | 1022.6 hPa | - | - | - | - |
| 1787468213 | 21.11° C | 53% | 1022.6 hPa | - | - | - | - |
| 1787468151 | 21.11° C | 52% | 1022.5 hPa | - | - | - | - |
| 1787467851 | 20° C | 55% | 1022.7 hPa | - | - | - | - |
| 1787467550 | 21.11° C | 52% | 1022.7 hPa | - | - | - | - |
| 1787467250 | 20° C | 56% | 1022.8 hPa | - | - | - | - |
| 1787466949 | 19.44° C | 58% | 1022.8 hPa | - | - | - | - |
| 1787466649 | 17.78° C | 62% | 1022.9 hPa | - | - | - | - |
| 1787466348 | 17.78° C | 63% | 1022.9 hPa | - | - | - | - |
| 1787466048 | 17.78° C | 63% | 1023 hPa | - | - | - | - |
| 1787465747 | 17.22° C | 64% | 1023.1 hPa | - | - | - | - |
| 1787465446 | 17.22° C | 66% | 1023 hPa | - | - | - | - |
| 1787465146 | 15.56° C | 71% | 1023.2 hPa | - | - | - | - |
* Rain since midnight (hover to see other rain measurements)
** Current wind speed in m/s (hover to see current wind gust speed)